South Milwaukee, Wisconsin
Current Conditions -  °F | °C
As of 2:52 PM on Thursday 20 Nov 2014 (Local Time) from KMKE Reporting Station
Few Clouds Few Clouds  
Wind Chill: 11°   Ceiling: Unl
Heat Index: 24°   Visibility: 10mi
Dew Point:   Wind: 15mph
Humidity: 35%   Direction: 290°WNW
Pressure: 30.04"   Gusts: 23mph
Location:  42.91°N, 87.87°W
Report Text: KMKE 202052Z 29013G20KT 10SM FEW047 M04/M18 A3004 RMK AO2 PK WND 27028/2022 SLP186 T10441178 53011
Loading
Personal Weather Stations






























Interactive Weather Map New forecast layout! Learn more

10-Day Weather Forecast

Advertisements
Track Severe Weather on mobile